Time;durP1;ratioP1;P1;durP2;ratioP2;P2;SDS_P1;SDS_P2;PMS_P1;PMS_P2;Temp;Humidity;BMP_temperature;BMP_pressure;BME280_temperature;BME280_humidity;BME280_pressure;Samples;Min_cycle;Max_cycle;Signal;HPM_P1;HPM_P2
2021/11/16 00:01:25;;;;;;;440.47;416.83;;;18.40;76.90;;;;;;5067402;28;20657;-69
2021/11/16 00:03:55;;;;;;;308.07;291.27;;;19.20;76.50;;;;;;5070938;28;20276;-70
2021/11/16 00:06:23;;;;;;;299.30;283.20;;;19.80;75.10;;;;;;5070077;28;20266;-71
2021/11/16 00:08:50;;;;;;;310.57;294.07;;;20.30;73.40;;;;;;5071130;28;20688;-70
2021/11/16 00:11:18;;;;;;;463.20;437.70;;;20.50;72.70;;;;;;5070733;28;20332;-68
2021/11/16 00:13:46;;;;;;;360.73;341.50;;;20.50;73.00;;;;;;5069366;28;20218;-69
2021/11/16 00:16:13;;;;;;;386.57;366.03;;;20.10;73.50;;;;;;5071524;28;20198;-66
2021/11/16 00:18:40;;;;;;;456.93;432.17;;;20.10;74.10;;;;;;5070469;28;20262;-69
2021/11/16 00:21:11;;;;;;;503.20;475.33;;;20.40;72.60;;;;;;5072152;28;20226;-72
2021/11/16 00:23:40;;;;;;;561.53;529.37;;;20.50;72.30;;;;;;5071347;28;20193;-67
2021/11/16 00:26:12;;;;;;;550.30;518.77;;;20.50;73.00;;;;;;5070856;28;20186;-71
2021/11/16 00:28:39;;;;;;;578.53;544.97;;;20.40;73.10;;;;;;5071115;28;20209;-68
2021/11/16 00:31:07;;;;;;;592.10;557.33;;;20.00;72.80;;;;;;5072439;28;20214;-68
2021/11/16 00:33:34;;;;;;;559.10;526.33;;;19.70;74.60;;;;;;5071742;28;20290;-69
2021/11/16 00:36:02;;;;;;;470.67;445.03;;;19.60;74.20;;;;;;5071075;28;20697;-69
2021/11/16 00:38:30;;;;;;;352.20;333.47;;;20.20;73.70;;;;;;5070525;28;20595;-70
2021/11/16 00:40:58;;;;;;;396.53;374.97;;;20.60;73.30;;;;;;5071261;28;20187;-71
2021/11/16 00:43:25;;;;;;;469.00;442.93;;;20.30;73.40;;;;;;5069526;28;20219;-68
2021/11/16 00:45:53;;;;;;;369.13;349.77;;;20.30;75.50;;;;;;5069585;28;20656;-69
2021/11/16 00:48:23;;;;;;;417.93;395.73;;;20.20;75.60;;;;;;5071639;28;20183;-68
2021/11/16 00:50:56;;;;;;;354.73;335.93;;;20.50;75.50;;;;;;5071063;28;20276;-68
2021/11/16 00:53:29;;;;;;;357.77;338.37;;;20.90;75.20;;;;;;5071221;28;20652;-70
2021/11/16 00:55:58;;;;;;;388.93;367.83;;;21.20;74.90;;;;;;5070357;28;20202;-69
2021/11/16 00:58:25;;;;;;;363.13;343.00;;;21.40;75.20;;;;;;5071175;28;20175;-70
2021/11/16 01:00:53;;;;;;;370.33;350.27;;;21.70;74.10;;;;;;5071067;28;20207;-66
2021/11/16 01:03:22;;;;;;;389.00;367.70;;;21.70;74.80;;;;;;5071305;28;20190;-68
2021/11/16 01:05:50;;;;;;;331.70;313.20;;;21.40;75.50;;;;;;5071136;28;20664;-67
2021/11/16 01:08:18;;;;;;;414.47;391.73;;;21.40;75.60;;;;;;5071529;28;20205;-69
2021/11/16 01:10:47;;;;;;;491.67;464.37;;;21.40;76.00;;;;;;5070557;28;20294;-68
2021/11/16 01:13:17;;;;;;;479.67;453.07;;;21.60;75.90;;;;;;5071073;28;20762;-71
2021/11/16 01:15:46;;;;;;;432.03;408.20;;;21.70;77.00;;;;;;5064616;28;20615;-67
2021/11/16 01:18:15;;;;;;;380.20;359.20;;;21.70;78.10;;;;;;5070772;28;20198;-68
2021/11/16 01:20:43;;;;;;;381.80;361.10;;;21.50;77.70;;;;;;5070337;28;20274;-68
2021/11/16 01:23:12;;;;;;;364.83;344.30;;;21.60;78.40;;;;;;5070039;28;20175;-70
2021/11/16 01:25:40;;;;;;;215.93;204.00;;;21.70;77.90;;;;;;5069418;28;20183;-70
2021/11/16 01:28:11;;;;;;;262.43;248.03;;;21.80;78.20;;;;;;5070038;28;20206;-67
2021/11/16 01:30:44;;;;;;;417.57;394.30;;;21.80;80.20;;;;;;5068960;28;20230;-69
2021/11/16 01:33:14;;;;;;;228.37;215.47;;;21.60;80.70;;;;;;5069426;28;20214;-70
2021/11/16 01:35:44;;;;;;;151.73;143.13;;;21.40;81.40;;;;;;5068966;28;20175;-70
2021/11/16 01:38:15;;;;;;;136.77;128.87;;;21.40;82.30;;;;;;5068588;28;20194;-70
2021/11/16 01:40:46;;;;;;;143.37;135.13;;;21.50;82.00;;;;;;5069795;28;20186;-70
2021/11/16 01:43:14;;;;;;;121.20;114.43;;;21.50;82.90;;;;;;5070398;28;20246;-67
2021/11/16 01:45:42;;;;;;;109.97;103.60;;;21.70;81.20;;;;;;5070736;28;20184;-69
2021/11/16 01:48:10;;;;;;;134.97;127.50;;;21.70;82.10;;;;;;5069834;28;20193;-71
2021/11/16 01:50:40;;;;;;;43.67;41.13;;;22.00;82.10;;;;;;5064825;28;20740;-70
2021/11/16 01:53:07;;;;;;;96.30;90.93;;;21.90;81.00;;;;;;5070381;28;20190;-69
2021/11/16 01:55:35;;;;;;;70.27;66.20;;;21.80;81.10;;;;;;5061703;28;20260;-70
2021/11/16 01:58:02;;;;;;;169.60;159.73;;;21.80;81.30;;;;;;5072241;28;20886;-70
2021/11/16 02:00:36;;;;;;;153.63;145.00;;;22.00;82.70;;;;;;5073215;28;20186;-70
2021/11/16 02:03:07;;;;;;;98.63;92.70;;;21.60;80.10;;;;;;5069296;28;20184;-69
2021/11/16 02:05:54;;;;;;;156.37;146.90;;;21.70;80.60;;;;;;5077065;28;20207;-71
2021/11/16 02:08:23;;;;;;;192.40;181.60;;;22.00;81.30;;;;;;5074545;28;20179;-71
2021/11/16 02:10:54;;;;;;;223.87;211.30;;;22.20;81.00;;;;;;5072896;28;20327;-73
2021/11/16 02:13:22;;;;;;;178.90;168.20;;;22.20;82.30;;;;;;5071578;28;20571;-70
2021/11/16 02:15:50;;;;;;;181.97;171.73;;;21.80;83.20;;;;;;5073730;28;20247;-69
2021/11/16 02:18:18;;;;;;;270.67;255.20;;;21.90;82.40;;;;;;5075507;28;20174;-69
2021/11/16 02:20:48;;;;;;;111.90;105.60;;;22.30;82.60;;;;;;5074068;28;20190;-70
2021/11/16 02:23:17;;;;;;;161.70;152.53;;;22.10;80.90;;;;;;5073685;28;20189;-72
2021/11/16 02:25:45;;;;;;;167.07;157.57;;;21.70;81.60;;;;;;5072161;28;20183;-74
2021/11/16 02:28:16;;;;;;;267.30;252.30;;;21.30;81.60;;;;;;5074470;28;20190;-69
2021/11/16 02:30:44;;;;;;;147.37;139.13;;;20.90;83.20;;;;;;5065689;28;20217;-68
2021/11/16 02:33:12;;;;;;;290.50;274.00;;;21.20;83.20;;;;;;5074083;28;20648;-69
2021/11/16 02:35:39;;;;;;;317.43;299.47;;;21.50;82.50;;;;;;5073799;28;20183;-67
2021/11/16 02:38:07;;;;;;;321.17;303.23;;;21.40;82.80;;;;;;5074142;28;20182;-68
2021/11/16 02:40:35;;;;;;;279.33;263.90;;;21.60;82.80;;;;;;5074010;28;20191;-70
2021/11/16 02:43:04;;;;;;;302.93;285.77;;;21.60;82.20;;;;;;5072725;28;20520;-69
2021/11/16 02:45:31;;;;;;;300.13;283.43;;;21.60;82.00;;;;;;5073034;28;20187;-69
2021/11/16 02:47:59;;;;;;;316.90;299.17;;;21.80;81.90;;;;;;5073881;28;20254;-70
2021/11/16 02:50:26;;;;;;;281.93;266.10;;;22.10;81.30;;;;;;5073750;28;20214;-69
2021/11/16 02:52:54;;;;;;;389.10;367.77;;;22.30;80.40;;;;;;5070619;28;20550;-68
2021/11/16 02:55:21;;;;;;;370.00;349.27;;;22.10;81.10;;;;;;5073718;28;20239;-69
2021/11/16 02:57:48;;;;;;;340.73;320.87;;;22.40;80.10;;;;;;5073093;28;20637;-72
2021/11/16 03:00:17;;;;;;;393.60;371.40;;;22.10;80.40;;;;;;5074157;28;20291;-71
2021/11/16 03:02:47;;;;;;;459.90;434.20;;;21.80;81.50;;;;;;5075959;28;20175;-70
2021/11/16 03:05:15;;;;;;;336.00;317.47;;;22.00;80.30;;;;;;5076410;28;20537;-69
2021/11/16 03:07:54;;;;;;;349.93;330.40;;;21.90;80.80;;;;;;5072934;28;20243;-71
2021/11/16 03:10:27;;;;;;;383.83;362.53;;;22.50;80.20;;;;;;5072792;28;20494;-69
2021/11/16 03:12:55;;;;;;;339.57;320.83;;;21.90;80.90;;;;;;5074391;28;20219;-68
2021/11/16 03:15:22;;;;;;;341.83;322.07;;;22.00;81.50;;;;;;5073175;28;20187;-68
2021/11/16 03:17:51;;;;;;;158.97;149.97;;;22.70;79.70;;;;;;5074139;28;20177;-69
2021/11/16 03:20:19;;;;;;;233.53;220.27;;;23.10;79.50;;;;;;5071477;28;20179;-69
2021/11/16 03:22:51;;;;;;;130.20;122.40;;;23.20;79.20;;;;;;5072306;28;20178;-70
2021/11/16 03:25:23;;;;;;;143.77;135.40;;;23.30;78.90;;;;;;5073227;28;20183;-69
2021/11/16 03:27:56;;;;;;;222.70;209.93;;;22.80;79.50;;;;;;5072989;28;20237;-70
2021/11/16 03:30:25;;;;;;;183.47;173.17;;;22.40;80.90;;;;;;5074873;28;20203;-68
2021/11/16 03:32:53;;;;;;;156.67;147.60;;;22.30;80.10;;;;;;5074889;28;20175;-72
2021/11/16 03:35:20;;;;;;;273.50;257.97;;;22.60;81.20;;;;;;5069689;28;20186;-70
2021/11/16 03:37:52;;;;;;;88.50;83.57;;;23.00;79.30;;;;;;5070960;28;20625;-70
2021/11/16 03:40:22;;;;;;;100.70;95.00;;;23.20;78.80;;;;;;5067839;28;20202;-71
2021/11/16 03:42:51;;;;;;;63.93;60.33;;;23.10;78.30;;;;;;5070038;28;20183;-72
2021/11/16 03:45:22;;;;;;;134.63;126.93;;;22.90;78.70;;;;;;5067606;28;20184;-69
2021/11/16 03:47:50;;;;;;;146.50;137.83;;;22.70;79.60;;;;;;5070899;28;20197;-70
2021/11/16 03:50:21;;;;;;;163.13;153.43;;;23.80;77.60;;;;;;5073210;28;20207;-71
2021/11/16 03:52:54;;;;;;;90.83;85.33;;;23.80;77.30;;;;;;5070195;28;20214;-68
2021/11/16 03:55:24;;;;;;;65.10;61.23;;;23.80;77.10;;;;;;5069741;28;20660;-69
2021/11/16 03:57:55;;;;;;;16.43;14.93;;;24.40;76.10;;;;;;5069353;28;20195;-72
2021/11/16 04:00:29;;;;;;;75.80;71.03;;;24.80;75.40;;;;;;5072074;28;20194;-71
2021/11/16 04:02:58;;;;;;;203.30;191.43;;;24.30;74.80;;;;;;5071623;28;20266;-71
2021/11/16 04:05:26;;;;;;;223.60;210.50;;;24.10;76.70;;;;;;5076683;28;20295;-68
2021/11/16 04:07:54;;;;;;;217.03;204.50;;;24.20;75.20;;;;;;5070683;28;20217;-69
2021/11/16 04:10:23;;;;;;;215.77;202.43;;;24.80;74.40;;;;;;5070276;28;20287;-69
2021/11/16 04:12:52;;;;;;;156.00;147.07;;;24.90;73.80;;;;;;5072148;28;20258;-68
2021/11/16 04:15:22;;;;;;;165.47;155.47;;;24.40;74.90;;;;;;5071638;28;20195;-70
2021/11/16 04:17:52;;;;;;;199.57;187.63;;;23.90;74.90;;;;;;5072658;28;20179;-72
2021/11/16 04:20:23;;;;;;;117.33;110.43;;;23.80;75.50;;;;;;5077412;28;20262;-68
2021/11/16 04:22:52;;;;;;;120.47;113.70;;;24.50;74.10;;;;;;5069687;28;20184;-70
2021/11/16 04:25:20;;;;;;;53.43;50.43;;;24.50;74.60;;;;;;5072619;28;20183;-69
2021/11/16 04:27:49;;;;;;;89.67;84.43;;;24.70;74.40;;;;;;5075222;28;20174;-69
2021/11/16 04:30:19;;;;;;;184.87;173.80;;;25.00;73.60;;;;;;5072644;28;20610;-67
2021/11/16 04:32:47;;;;;;;148.03;139.50;;;25.50;73.20;;;;;;5072021;28;20174;-70
2021/11/16 04:35:15;;;;;;;212.97;200.50;;;25.20;73.20;;;;;;5072888;28;20510;-69
2021/11/16 04:37:45;;;;;;;318.00;298.73;;;24.50;73.50;;;;;;5071110;28;20218;-71
2021/11/16 04:40:16;;;;;;;408.43;383.77;;;24.80;74.20;;;;;;5070692;28;20187;-68
2021/11/16 04:42:44;;;;;;;398.43;374.30;;;25.00;73.20;;;;;;5072324;28;20236;-68
2021/11/16 04:45:18;;;;;;;321.93;302.80;;;24.90;73.60;;;;;;5072349;28;20663;-71
2021/11/16 05:03:43;;;;;;;279.97;262.87;;;25.90;71.30;;;;;;5070083;28;20224;-67
2021/11/16 05:06:11;;;;;;;250.87;236.27;;;25.50;71.90;;;;;;5071073;28;20186;-67
2021/11/16 05:08:46;;;;;;;222.43;209.13;;;24.90;72.60;;;;;;5070760;28;20186;-70
2021/11/16 05:11:15;;;;;;;258.27;243.17;;;24.20;73.70;;;;;;5069104;28;20270;-69
2021/11/16 05:13:44;;;;;;;170.07;160.13;;;24.10;74.60;;;;;;5069424;28;20765;-69
2021/11/16 05:16:18;;;;;;;190.10;179.20;;;25.30;73.60;;;;;;5070395;28;20275;-67
2021/11/16 05:18:45;;;;;;;189.20;178.00;;;25.00;73.20;;;;;;5065881;28;20175;-69
2021/11/16 05:21:14;;;;;;;161.60;152.27;;;24.50;74.00;;;;;;5069077;28;20262;-68
2021/11/16 05:23:50;;;;;;;81.57;76.77;;;24.50;74.70;;;;;;5067420;28;20275;-69
2021/11/16 05:26:17;;;;;;;18.40;17.20;;;25.10;74.10;;;;;;5070936;28;20178;-68
2021/11/16 05:28:44;;;;;;;9.80;6.70;;;26.40;72.90;;;;;;5066109;28;20663;-71
2021/11/16 05:31:12;;;;;;;90.77;85.57;;;26.30;71.80;;;;;;5071019;28;20269;-69
2021/11/16 05:33:39;;;;;;;71.07;67.00;;;26.00;73.00;;;;;;5070845;28;20179;-70
2021/11/16 05:36:07;;;;;;;43.07;40.60;;;25.80;73.20;;;;;;5068495;28;20696;-69
2021/11/16 05:38:39;;;;;;;40.90;38.60;;;25.00;73.60;;;;;;5070372;28;20187;-67
2021/11/16 05:41:07;;;;;;;87.30;82.17;;;25.70;73.20;;;;;;5068457;28;20240;-70
2021/11/16 05:43:36;;;;;;;96.63;91.03;;;25.10;73.80;;;;;;5069476;28;20766;-70
2021/11/16 05:46:03;;;;;;;58.93;55.43;;;24.80;74.50;;;;;;5070328;28;20183;-69
2021/11/16 05:48:39;;;;;;;6.20;5.37;;;25.40;74.10;;;;;;5071385;28;20187;-70
2021/11/16 05:51:07;;;;;;;37.77;35.50;;;25.10;73.70;;;;;;5069405;28;20229;-69
2021/11/16 05:53:37;;;;;;;37.13;34.47;;;24.50;76.50;;;;;;5070700;28;20195;-69
2021/11/16 05:56:05;;;;;;;10.37;9.53;;;24.90;74.90;;;;;;5071097;28;21473;-68
2021/11/16 05:58:33;;;;;;;45.40;42.03;;;25.30;75.00;;;;;;5070604;28;20252;-71
2021/11/16 06:01:01;;;;;;;16.77;15.63;;;25.70;74.10;;;;;;5071733;28;20187;-69
2021/11/16 06:03:28;;;;;;;23.77;22.07;;;25.70;74.20;;;;;;5069095;28;20195;-69
2021/11/16 06:05:55;;;;;;;6.57;4.20;;;25.60;74.00;;;;;;5072723;28;20187;-69
2021/11/16 06:08:29;;;;;;;15.63;10.40;;;25.00;75.10;;;;;;5071652;28;20180;-68
2021/11/16 06:10:57;;;;;;;59.93;56.00;;;24.90;75.50;;;;;;5070325;28;20254;-70
2021/11/16 06:13:25;;;;;;;81.10;76.27;;;24.60;75.10;;;;;;5068918;28;20223;-71
2021/11/16 06:15:53;;;;;;;113.70;106.70;;;24.50;75.40;;;;;;5069287;28;20248;-67
2021/11/16 06:18:24;;;;;;;87.70;82.77;;;23.30;77.10;;;;;;5072531;28;20684;-69
2021/11/16 06:20:54;;;;;;;116.77;110.13;;;24.00;77.50;;;;;;5068572;28;20546;-67
2021/11/16 06:23:22;;;;;;;129.90;122.53;;;23.50;76.90;;;;;;5069106;28;20180;-69
2021/11/16 06:25:49;;;;;;;150.43;141.37;;;23.10;78.50;;;;;;5072957;28;20184;-69
2021/11/16 06:28:17;;;;;;;147.40;138.23;;;22.70;78.90;;;;;;5069697;28;20173;-69
2021/11/16 06:30:44;;;;;;;54.97;51.47;;;22.70;79.30;;;;;;5065087;28;20735;-70
2021/11/16 06:33:12;;;;;;;49.60;46.57;;;22.70;79.10;;;;;;5067335;28;20202;-69
2021/11/16 06:35:39;;;;;;;76.47;71.83;;;22.90;79.30;;;;;;5069556;28;20641;-66
2021/11/16 06:38:06;;;;;;;166.83;157.43;;;23.60;78.30;;;;;;5072404;28;20206;-70
2021/11/16 06:40:34;;;;;;;160.20;150.93;;;24.10;77.70;;;;;;5071405;28;20179;-68
2021/11/16 06:43:01;;;;;;;110.30;103.93;;;23.80;76.70;;;;;;5071662;28;20186;-69
2021/11/16 06:45:28;;;;;;;165.40;155.57;;;23.10;78.80;;;;;;5075556;28;20171;-69
2021/11/16 06:47:56;;;;;;;243.17;228.70;;;22.80;80.10;;;;;;5072986;28;20181;-69
2021/11/16 06:50:23;;;;;;;210.03;197.97;;;22.80;80.80;;;;;;5075854;28;20250;-69
2021/11/16 06:52:50;;;;;;;321.90;303.53;;;23.60;78.90;;;;;;5073880;28;20194;-73
2021/11/16 06:55:18;;;;;;;254.17;239.33;;;23.80;76.80;;;;;;5077904;28;20210;-69
2021/11/16 06:57:47;;;;;;;303.00;285.60;;;23.50;78.10;;;;;;5073951;28;20588;-70
2021/11/16 07:00:15;;;;;;;208.03;195.97;;;24.20;76.50;;;;;;5073687;28;20214;-71
2021/11/16 07:02:43;;;;;;;261.60;246.20;;;24.00;76.90;;;;;;5070439;28;20187;-71
2021/11/16 07:05:12;;;;;;;162.83;152.77;;;24.10;76.50;;;;;;5075587;28;20187;-69
2021/11/16 07:07:46;;;;;;;191.83;180.77;;;24.10;75.90;;;;;;5077680;28;20213;-71
2021/11/16 07:10:18;;;;;;;334.27;315.03;;;23.30;77.40;;;;;;5073783;28;20211;-71
2021/11/16 07:12:46;;;;;;;318.33;299.97;;;22.60;79.50;;;;;;5075618;28;20306;-68
2021/11/16 07:15:15;;;;;;;319.17;301.07;;;22.00;81.10;;;;;;5073308;28;20183;-67
2021/11/16 07:17:43;;;;;;;324.53;305.60;;;22.20;81.60;;;;;;5079027;28;20524;-67
2021/11/16 07:20:12;;;;;;;293.97;277.20;;;22.60;80.60;;;;;;5073884;28;20266;-67
2021/11/16 07:22:41;;;;;;;281.70;265.63;;;22.50;79.80;;;;;;5073546;28;20214;-69
2021/11/16 07:25:11;;;;;;;308.47;291.17;;;22.00;79.70;;;;;;5073698;28;20175;-68
2021/11/16 07:27:48;;;;;;;329.97;310.97;;;21.70;81.10;;;;;;5075750;28;20214;-67
2021/11/16 07:30:23;;;;;;;456.43;430.70;;;21.30;82.00;;;;;;5073388;28;20305;-69
2021/11/16 07:32:53;;;;;;;504.47;476.00;;;20.40;84.00;;;;;;5071202;28;20198;-68
2021/11/16 07:35:33;;;;;;;390.10;368.70;;;19.80;85.30;;;;;;5072598;28;20175;-68
2021/11/16 07:38:04;;;;;;;473.70;447.37;;;20.00;86.00;;;;;;5073013;28;20183;-67
2021/11/16 07:40:33;;;;;;;511.13;482.80;;;19.50;86.60;;;;;;5071054;28;20638;-66
2021/11/16 07:43:09;;;;;;;458.40;433.33;;;19.40;87.40;;;;;;5073309;28;20179;-67
2021/11/16 07:45:40;;;;;;;479.37;453.20;;;19.10;88.30;;;;;;5072371;28;20186;-70
2021/11/16 07:48:10;;;;;;;380.87;360.40;;;18.90;89.30;;;;;;5072134;28;20600;-68
2021/11/16 07:50:46;;;;;;;357.63;338.63;;;18.60;90.00;;;;;;5073094;28;20227;-69
2021/11/16 07:53:19;;;;;;;310.77;294.47;;;18.30;90.50;;;;;;5075486;28;20570;-68
2021/11/16 07:56:11;;;;;;;317.90;301.30;;;18.30;90.50;;;;;;5076345;28;20201;-69
2021/11/16 07:58:40;;;;;;;423.10;400.87;;;18.20;90.70;;;;;;5073073;28;20659;-67
2021/11/16 08:01:22;;;;;;;333.40;315.50;;;18.20;90.80;;;;;;5079317;28;20541;-69
2021/11/16 08:03:52;;;;;;;331.37;313.50;;;18.00;90.90;;;;;;5077796;28;20221;-69
2021/11/16 08:06:30;;;;;;;430.23;407.30;;;18.10;91.10;;;;;;5073121;28;20187;-71
2021/11/16 08:09:11;;;;;;;419.97;397.90;;;18.30;90.70;;;;;;5073009;28;20178;-70
2021/11/16 08:11:43;;;;;;;476.03;450.10;;;18.50;90.60;;;;;;5073001;28;20222;-69
2021/11/16 08:14:16;;;;;;;485.10;458.47;;;18.70;90.50;;;;;;5072696;28;20226;-69
2021/11/16 08:16:53;;;;;;;446.13;422.53;;;18.50;90.60;;;;;;5069849;28;20183;-68
2021/11/16 08:19:24;;;;;;;488.50;461.23;;;18.40;90.70;;;;;;5071056;28;20190;-68
2021/11/16 08:21:56;;;;;;;542.03;510.83;;;18.40;90.50;;;;;;5072682;28;20175;-70
2021/11/16 08:24:25;;;;;;;563.27;529.83;;;18.30;90.50;;;;;;5071561;28;20223;-69
2021/11/16 08:26:54;;;;;;;612.67;574.03;;;18.10;90.70;;;;;;5072415;28;20187;-68
2021/11/16 08:29:34;;;;;;;554.33;522.37;;;18.20;90.90;;;;;;5070508;28;20179;-69
2021/11/16 08:32:14;;;;;;;418.97;396.50;;;17.90;90.80;;;;;;5069131;28;20194;-69
2021/11/16 08:34:48;;;;;;;484.80;458.00;;;17.60;91.30;;;;;;5072171;28;20179;-68
2021/11/16 08:37:17;;;;;;;408.10;386.47;;;17.50;91.70;;;;;;5071676;28;20616;-69
2021/11/16 08:39:54;;;;;;;476.53;450.10;;;17.60;91.70;;;;;;5070634;28;20202;-68
2021/11/16 08:42:24;;;;;;;520.50;490.83;;;17.80;91.60;;;;;;5071849;28;20185;-68
2021/11/16 08:44:59;;;;;;;526.00;495.47;;;17.70;91.40;;;;;;5071425;28;20178;-69
2021/11/16 08:47:37;;;;;;;641.43;600.13;;;17.70;91.70;;;;;;5071959;28;20207;-69
2021/11/16 08:50:22;;;;;;;545.53;513.93;;;17.70;91.20;;;;;;5069399;28;20204;-70
2021/11/16 08:52:49;;;;;;;503.90;475.40;;;17.50;91.20;;;;;;5069820;28;20664;-69
2021/11/16 08:55:23;;;;;;;500.43;472.43;;;17.50;91.30;;;;;;5072198;28;20229;-70
2021/11/16 08:57:52;;;;;;;629.30;589.00;;;17.60;91.40;;;;;;5064562;28;20663;-69
2021/11/16 09:00:34;;;;;;;553.03;520.03;;;17.50;91.70;;;;;;5069562;28;20221;-68
2021/11/16 09:03:14;;;;;;;589.03;552.37;;;17.50;91.80;;;;;;5065945;28;20689;-68
2021/11/16 09:05:51;;;;;;;581.63;545.67;;;17.40;91.90;;;;;;5070448;28;20212;-69
2021/11/16 09:08:22;;;;;;;445.80;421.80;;;17.40;91.80;;;;;;5070402;28;20716;-68
2021/11/16 09:10:52;;;;;;;614.33;574.70;;;17.40;91.70;;;;;;5069797;28;20222;-68
2021/11/16 09:13:22;;;;;;;519.67;489.83;;;17.40;91.60;;;;;;5070211;28;20568;-69
2021/11/16 09:15:56;;;;;;;603.63;565.93;;;17.40;91.50;;;;;;5069911;28;20271;-69
2021/11/16 09:18:30;;;;;;;576.63;541.53;;;17.40;91.60;;;;;;5069746;28;20232;-69
2021/11/16 09:21:15;;;;;;;588.37;552.27;;;17.50;91.70;;;;;;5070156;28;20181;-68
2021/11/16 09:23:46;;;;;;;578.70;543.30;;;17.40;92.00;;;;;;5071247;28;20179;-69
2021/11/16 09:29:07;;;;;;;474.03;447.63;;;17.30;91.90;;;;;;5065901;28;20171;-68
2021/11/16 09:32:08;;;;;;;587.93;551.27;;;17.20;91.80;;;;;;5070971;28;20324;-68
2021/11/16 09:34:42;;;;;;;507.73;478.77;;;17.10;91.90;;;;;;5063243;28;20190;-68
2021/11/16 09:37:17;;;;;;;523.30;492.50;;;17.20;92.00;;;;;;5071847;28;20206;-68
2021/11/16 09:39:49;;;;;;;471.23;445.43;;;17.20;92.00;;;;;;5071057;28;20198;-68
2021/11/16 09:42:25;;;;;;;335.77;318.20;;;17.20;92.10;;;;;;5070198;28;20183;-69
2021/11/16 09:45:02;;;;;;;457.27;432.60;;;17.20;91.80;;;;;;5070358;28;20183;-68
2021/11/16 09:47:36;;;;;;;483.40;456.03;;;17.00;91.70;;;;;;5070651;28;20179;-68
2021/11/16 09:50:23;;;;;;;485.17;458.10;;;17.00;91.90;;;;;;5071596;28;20237;-69
2021/11/16 09:52:55;;;;;;;448.50;424.07;;;16.90;91.90;;;;;;5070906;28;20194;-68
2021/11/16 09:55:37;;;;;;;460.23;434.73;;;16.90;92.10;;;;;;5071092;28;20183;-68
2021/11/16 09:58:07;;;;;;;563.80;528.73;;;16.90;92.30;;;;;;5070875;28;20207;-68
2021/11/16 10:00:42;;;;;;;608.60;568.23;;;16.90;92.30;;;;;;5070138;28;20625;-68
2021/11/16 10:03:26;;;;;;;612.67;572.70;;;16.70;92.20;;;;;;5070473;28;20191;-68
2021/11/16 10:05:58;;;;;;;588.00;550.13;;;16.70;92.40;;;;;;5066357;28;20524;-68
2021/11/16 10:08:28;;;;;;;598.93;559.20;;;16.70;92.40;;;;;;5069335;28;20190;-67
2021/11/16 10:10:59;;;;;;;523.07;492.60;;;16.70;92.00;;;;;;5070550;28;20401;-68
2021/11/16 10:13:29;;;;;;;522.60;491.57;;;16.60;92.20;;;;;;5069230;28;20222;-67
2021/11/16 10:15:59;;;;;;;546.40;512.33;;;16.60;92.20;;;;;;5070800;28;20178;-68
2021/11/16 10:18:30;;;;;;;536.80;503.63;;;16.60;92.40;;;;;;5071199;28;20534;-68
2021/11/16 10:20:58;;;;;;;474.17;447.37;;;16.70;92.50;;;;;;5070445;28;20175;-68
2021/11/16 10:23:39;;;;;;;546.00;512.83;;;16.70;92.30;;;;;;5071298;28;20179;-68
2021/11/16 10:26:08;;;;;;;512.87;482.80;;;16.60;92.60;;;;;;5074519;28;20620;-67
2021/11/16 10:28:37;;;;;;;459.63;433.33;;;16.50;92.30;;;;;;5075123;28;20174;-68
2021/11/16 10:31:06;;;;;;;495.93;466.47;;;16.50;92.20;;;;;;5074091;28;20210;-68
2021/11/16 10:33:42;;;;;;;554.83;519.47;;;16.50;92.30;;;;;;5074691;28;20185;-69
2021/11/16 10:36:13;;;;;;;539.47;506.53;;;16.40;92.10;;;;;;5075501;28;20606;-69
2021/11/16 10:38:50;;;;;;;586.83;546.37;;;16.40;92.20;;;;;;5075454;28;20195;-68
2021/11/16 10:41:25;;;;;;;551.90;516.73;;;16.50;92.20;;;;;;5073150;28;20244;-68
2021/11/16 10:44:14;;;;;;;564.30;528.27;;;16.40;92.30;;;;;;5075302;28;20530;-68
2021/11/16 10:46:46;;;;;;;537.00;503.40;;;16.40;92.30;;;;;;5064885;28;20186;-68
2021/11/16 10:49:16;;;;;;;601.73;559.77;;;16.40;92.40;;;;;;5074113;28;20191;-68
2021/11/16 10:51:47;;;;;;;616.70;572.73;;;16.30;92.50;;;;;;5072191;28;20222;-69
2021/11/16 10:54:16;;;;;;;599.07;557.10;;;16.30;92.50;;;;;;5069153;28;20212;-69
2021/11/16 10:56:44;;;;;;;628.10;583.30;;;16.30;92.70;;;;;;5071100;28;20190;-69
2021/11/16 10:59:17;;;;;;;651.43;604.30;;;16.30;92.50;;;;;;5072212;28;20259;-68
2021/11/16 11:01:53;;;;;;;649.73;600.80;;;16.30;92.60;;;;;;5073498;28;20541;-69
2021/11/16 11:04:24;;;;;;;646.77;596.93;;;16.30;92.60;;;;;;5072897;28;20663;-68
2021/11/16 11:06:53;;;;;;;661.33;609.90;;;16.20;92.70;;;;;;5072612;28;20186;-68
2021/11/16 11:09:22;;;;;;;644.37;592.93;;;16.20;92.80;;;;;;5074583;28;20189;-68
2021/11/16 11:11:54;;;;;;;647.27;596.80;;;16.20;93.10;;;;;;5073314;28;20299;-68
2021/11/16 11:14:36;;;;;;;629.17;581.13;;;16.10;93.00;;;;;;5074388;28;20299;-68
2021/11/16 11:17:07;;;;;;;614.33;569.13;;;16.10;93.10;;;;;;5071850;28;20259;-68
2021/11/16 11:19:42;;;;;;;608.13;563.23;;;16.10;93.40;;;;;;5072644;28;20176;-68
2021/11/16 11:22:21;;;;;;;617.37;570.57;;;16.10;93.60;;;;;;5074033;28;20186;-68
2021/11/16 11:25:04;;;;;;;630.67;583.10;;;16.00;93.60;;;;;;5068800;28;20186;-68
2021/11/16 11:30:23;;;;;;;613.57;567.10;;;16.00;94.00;;;;;;5069125;28;20203;-68
2021/11/16 11:32:52;;;;;;;611.67;564.90;;;16.10;94.00;;;;;;5073496;28;20278;-68
2021/11/16 11:35:28;;;;;;;625.07;576.30;;;16.10;94.20;;;;;;5073456;28;20222;-68
2021/11/16 11:37:58;;;;;;;613.20;562.57;;;16.00;94.30;;;;;;5072749;28;20216;-69
2021/11/16 11:40:36;;;;;;;598.27;551.37;;;16.00;94.40;;;;;;5073521;28;20201;-68
2021/11/16 11:43:10;;;;;;;612.27;564.40;;;16.00;94.40;;;;;;5073454;28;20183;-68
2021/11/16 11:45:40;;;;;;;612.90;566.73;;;15.90;94.80;;;;;;5073537;28;20262;-68
2021/11/16 11:48:14;;;;;;;600.10;556.17;;;15.90;94.80;;;;;;5072689;28;20179;-68
2021/11/16 11:50:48;;;;;;;565.07;527.80;;;15.90;95.00;;;;;;5066031;28;20226;-68
2021/11/16 11:53:32;;;;;;;602.40;557.60;;;15.90;95.10;;;;;;5072884;28;20687;-68
2021/11/16 11:56:04;;;;;;;615.70;565.70;;;15.80;95.30;;;;;;5072839;28;20185;-68
2021/11/16 11:58:35;;;;;;;578.50;539.23;;;15.80;95.30;;;;;;5073371;28;20206;-68
2021/11/16 12:01:07;;;;;;;572.87;534.77;;;15.80;95.50;;;;;;5072890;28;20628;-69
2021/11/16 12:03:38;;;;;;;572.00;533.00;;;15.80;95.50;;;;;;5069864;28;20179;-68
2021/11/16 12:06:06;;;;;;;582.87;541.63;;;15.80;95.50;;;;;;5072889;28;20714;-67
2021/11/16 12:08:34;;;;;;;557.47;520.60;;;15.70;95.60;;;;;;5073081;28;20199;-68
2021/11/16 12:11:02;;;;;;;576.47;537.37;;;15.70;95.70;;;;;;5073118;28;20348;-68
2021/11/16 12:13:34;;;;;;;603.00;556.77;;;15.70;96.00;;;;;;5072812;28;20227;-67
2021/11/16 12:16:34;;;;;;;605.53;561.07;;;15.80;96.00;;;;;;5072223;28;20182;-68
2021/11/16 12:19:11;;;;;;;585.87;542.50;;;15.80;96.00;;;;;;5072559;28;20186;-68
2021/11/16 12:21:44;;;;;;;533.37;498.67;;;15.80;96.00;;;;;;5072266;28;20179;-68
2021/11/16 12:24:16;;;;;;;458.00;430.50;;;15.80;96.30;;;;;;5072619;28;20184;-68
2021/11/16 12:27:05;;;;;;;451.07;424.73;;;15.80;96.50;;;;;;5071760;28;20191;-68
2021/11/16 12:29:45;;;;;;;568.90;527.97;;;15.80;96.40;;;;;;5072200;28;20211;-68
2021/11/16 12:32:13;;;;;;;594.10;547.83;;;15.70;96.70;;;;;;5072360;28;20187;-68
2021/11/16 12:34:49;;;;;;;625.80;570.90;;;15.70;96.70;;;;;;5071562;28;20239;-68
2021/11/16 12:37:42;;;;;;;620.87;566.97;;;15.60;97.00;;;;;;5071740;28;20192;-68
2021/11/16 12:40:24;;;;;;;600.80;553.73;;;15.60;97.10;;;;;;5071876;28;20228;-68
2021/11/16 12:43:17;;;;;;;602.37;557.67;;;15.60;97.10;;;;;;5068752;28;20179;-68
2021/11/16 12:45:46;;;;;;;576.93;536.70;;;15.50;97.30;;;;;;5072118;28;20914;-69
2021/11/16 12:48:16;;;;;;;512.40;479.97;;;15.50;97.70;;;;;;5072346;28;20199;-69
2021/11/16 12:51:22;;;;;;;569.73;530.53;;;15.50;97.80;;;;;;5071663;28;20587;-68
2021/11/16 12:53:59;;;;;;;466.00;438.53;;;15.40;97.90;;;;;;5008012;28;20246;-68